Strona główna
METAR-TAF:

METAR-TAF

Lotnisko :

Port lotniczy Chartum

Chartum, Sudan

Szerokość geograficzna: 15-36N, Długość geograficzna: 032-33E, wysokość: 382 m

Aktualna obserwacja pogody

Raport powstał 23 minut temu, godzina 19:30 UTC
Wiatr 10 kt od południowo-południowy wschód
Temperatura 32°C
Wilgotność 38%
Ciśnienie 1010 hPa
Widzialność 10 km lub więcej
Brak chmur poniżej 1500 m i brak chmur cumulonimbus

METAR: HSSS 251930Z 16010KT CAVOK 32/16 Q1010 NOSIG

czas: 22:53 (19:53 UTC)

Prognoza

Raport powstał 2 godziny i 53 minut temu, godzina 17:00 UTC
Prognoza ważna od 25 godzina 18 UTC do 26 godzina 24 UTC
Wiatr 10 kt od południowy zachód w porywach dochodzący do 20 kt
Widzialność 10 km lub więcej
Brak chmur poniżej 1500 m i brak chmur cumulonimbus
Przejściowo
od 25 godzina 00 UTC do 25 godzina 06 UTC
Widzialność: 6000 m

TAF: HSSS 251700Z 2518/2624 22010G20KT CAVOK TEMPO 2500/2506 6000

Obserwacja i prognoza pogody dla ponad 4000 lotnisk (raport METAR i TAF).

Dostępne stacje oznaczono żółtymi i czerwonymi punktami na mapie.

Najedź kursorem aby zobaczyć nazwę stacji.

Kliknij aby zobaczyć obserwacje i prognozy pogody.

Aby zmienić mapę: kliknij na zielony przycisk z czarnym krzyżykiem, aby powiększyć; na zielony przycisk z myślnikiem, aby pomniejszyć; na zielone strzałki, aby przejść do map sąsiednich.


METAR-TAF: